Terminal Aerodrome Forecast
Issued by NWS

Home | Current Version | Previous Version | Text Only | Print | Product List | Glossary On
Versions: 1 2 3 4 5 6 7 8 9 10 11 12 13 14 15 16 17 18 19 20 21 22 23 24 25 26 27
000
FTUS44 KBMX 300520
TAFTOI
TAF
KTOI 300520Z 3006/0106 00000KT P6SM SCT070 OVC150
     FM300900 00000KT 3SM BR BKN045 OVC250
      TEMPO 3009/3012 2SM BR
     FM301200 13004KT 6SM BR BKN050 OVC250
      TEMPO 3012/3014 3SM BR
     FM301900 19006KT P6SM BKN250=

USA.gov is the U.S. government's official web portal to all federal, state and local government web resources and services.